Time;durP1;ratioP1;P1;durP2;ratioP2;P2;SDS_P1;SDS_P2;PMS_P1;PMS_P2;Temp;Humidity;BMP_temperature;BMP_pressure;BME280_temperature;BME280_humidity;BME280_pressure;Samples;Min_cycle;Max_cycle;Signal;HPM_P1;HPM_P2
2022/12/19 00:02:07;;;;;;;20.98;11.80;;;0.60;99.90;;;;;;5037230;28;20080;-68
2022/12/19 00:04:33;;;;;;;17.38;10.75;;;0.60;99.90;;;;;;5044709;28;20045;-68
2022/12/19 00:06:59;;;;;;;18.83;11.77;;;0.60;99.90;;;;;;5042422;28;20045;-68
2022/12/19 00:09:25;;;;;;;16.63;10.70;;;0.60;99.90;;;;;;5037078;28;20057;-68
2022/12/19 00:11:51;;;;;;;17.85;11.23;;;0.60;99.90;;;;;;5046569;28;20049;-67
2022/12/19 00:14:17;;;;;;;17.67;10.93;;;0.60;99.90;;;;;;5040067;28;20045;-67
2022/12/19 00:16:43;;;;;;;20.55;11.23;;;0.60;99.90;;;;;;5042312;28;20045;-67
2022/12/19 00:19:10;;;;;;;20.35;12.30;;;0.60;99.90;;;;;;5037745;28;20040;-68
2022/12/19 00:21:36;;;;;;;18.50;11.52;;;0.60;99.90;;;;;;5040745;28;20095;-68
2022/12/19 00:24:04;;;;;;;20.35;10.80;;;0.60;99.90;;;;;;5035003;28;20099;-68
2022/12/19 00:26:32;;;;;;;19.63;11.30;;;0.60;99.90;;;;;;5032872;28;20054;-68
2022/12/19 00:29:00;;;;;;;19.23;10.57;;;0.80;99.90;;;;;;5039678;28;20069;-68
2022/12/19 00:31:29;;;;;;;17.25;10.43;;;0.60;99.90;;;;;;5036137;28;20045;-68
2022/12/19 00:33:55;;;;;;;17.42;10.10;;;0.60;99.90;;;;;;5036384;28;20046;-67
2022/12/19 00:36:24;;;;;;;22.95;12.20;;;0.60;99.90;;;;;;5040718;28;20037;-67
2022/12/19 00:38:51;;;;;;;19.20;11.32;;;0.70;99.90;;;;;;5041613;28;20429;-69
2022/12/19 00:41:25;;;;;;;19.65;11.05;;;0.60;99.90;;;;;;5043434;28;20045;-68
2022/12/19 00:43:59;;;;;;;17.65;10.65;;;0.70;99.90;;;;;;5044749;28;20061;-68
2022/12/19 00:46:26;;;;;;;17.08;10.80;;;0.70;99.90;;;;;;5058843;28;20054;-68
2022/12/19 00:48:51;;;;;;;20.77;11.27;;;0.70;99.90;;;;;;5035216;28;20053;-68
2022/12/19 00:51:20;;;;;;;19.33;10.68;;;0.70;99.90;;;;;;5036949;28;20029;-68
2022/12/19 00:53:47;;;;;;;21.27;11.73;;;0.70;99.90;;;;;;5037441;28;20048;-67
2022/12/19 00:56:16;;;;;;;20.20;11.30;;;0.70;99.90;;;;;;5047482;28;20041;-67
2022/12/19 00:58:42;;;;;;;18.48;10.95;;;0.80;99.90;;;;;;5056172;28;20044;-67
2022/12/19 01:01:23;;;;;;;21.05;11.48;;;0.70;99.90;;;;;;5041471;28;20046;-68
2022/12/19 01:03:49;;;;;;;20.75;11.70;;;0.80;99.90;;;;;;5042432;28;20044;-68
2022/12/19 01:06:15;;;;;;;21.20;11.20;;;0.80;99.90;;;;;;5051442;28;20079;-68
2022/12/19 01:08:41;;;;;;;19.85;10.75;;;0.80;99.90;;;;;;5053121;28;20091;-68
2022/12/19 01:11:07;;;;;;;19.20;10.90;;;0.80;99.90;;;;;;5039001;28;20041;-68
2022/12/19 01:13:35;;;;;;;18.92;11.30;;;0.90;99.90;;;;;;5037144;28;20037;-68
2022/12/19 01:16:06;;;;;;;19.35;10.90;;;0.90;99.90;;;;;;5034721;28;20136;-68
2022/12/19 01:18:32;;;;;;;18.10;10.70;;;0.90;99.90;;;;;;5041987;28;20045;-68
2022/12/19 01:21:00;;;;;;;20.92;12.30;;;0.90;99.90;;;;;;5050221;28;20428;-68
2022/12/19 01:23:26;;;;;;;19.67;11.18;;;0.90;99.90;;;;;;5043061;28;20041;-68
2022/12/19 01:25:53;;;;;;;19.00;10.73;;;0.90;99.90;;;;;;5036056;28;20057;-68
2022/12/19 01:28:19;;;;;;;20.77;12.07;;;0.90;99.90;;;;;;5055554;28;20489;-69
2022/12/19 01:30:45;;;;;;;20.95;12.23;;;1.00;99.90;;;;;;5056816;28;20054;-68
2022/12/19 01:33:12;;;;;;;19.77;11.32;;;1.00;99.90;;;;;;5039010;28;20332;-68
2022/12/19 01:35:40;;;;;;;20.52;11.68;;;1.00;99.90;;;;;;5037106;28;20042;-69
2022/12/19 01:38:05;;;;;;;19.42;11.30;;;1.00;99.90;;;;;;5052932;28;20033;-71
2022/12/19 01:40:32;;;;;;;19.70;11.73;;;2.10;99.90;;;;;;5029931;28;20044;-70
2022/12/19 01:42:58;;;;;;;19.95;11.52;;;1.00;99.90;;;;;;5050247;28;20099;-70
2022/12/19 01:45:24;;;;;;;19.85;11.48;;;1.00;99.90;;;;;;5038311;28;20105;-70
2022/12/19 01:47:58;;;;;;;18.98;10.27;;;1.20;99.90;;;;;;5054457;28;20045;-70
2022/12/19 01:50:37;;;;;;;19.67;12.30;;;1.00;99.90;;;;;;5065124;28;20049;-69
2022/12/19 01:53:04;;;;;;;19.42;11.60;;;1.10;99.90;;;;;;5044579;28;20049;-70
2022/12/19 01:55:30;;;;;;;19.30;11.40;;;1.10;99.90;;;;;;5042395;28;20042;-70
2022/12/19 01:57:56;;;;;;;18.98;10.40;;;1.20;99.90;;;;;;5042438;28;20077;-70
2022/12/19 02:00:22;;;;;;;20.40;11.38;;;1.20;99.90;;;;;;5057442;28;20045;-70
2022/12/19 02:03:08;;;;;;;19.92;11.65;;;1.10;99.90;;;;;;5063628;28;20053;-70
2022/12/19 02:05:34;;;;;;;19.45;11.50;;;1.20;99.90;;;;;;5055169;28;20049;-70
2022/12/19 02:08:02;;;;;;;18.88;10.48;;;1.10;99.90;;;;;;5047608;28;20044;-70
2022/12/19 02:10:27;;;;;;;16.98;11.85;;;1.20;99.90;;;;;;5043151;28;20101;-70
2022/12/19 02:12:54;;;;;;;18.05;11.23;;;1.20;99.90;;;;;;5049376;28;20037;-70
2022/12/19 02:15:20;;;;;;;19.90;11.25;;;1.20;99.90;;;;;;5044489;28;20045;-70
2022/12/19 02:18:05;;;;;;;19.45;10.45;;;1.20;99.90;;;;;;5069722;28;20045;-70
2022/12/19 02:21:13;;;;;;;18.17;11.65;;;1.30;99.90;;;;;;5037676;28;20041;-70
2022/12/19 02:24:09;;;;;;;18.98;11.05;;;1.30;99.90;;;;;;5042325;28;20049;-71
2022/12/19 02:27:02;;;;;;;18.40;10.93;;;1.30;99.90;;;;;;5063525;28;20045;-71
2022/12/19 02:29:52;;;;;;;20.45;11.15;;;1.30;99.90;;;;;;5040705;28;20034;-71
2022/12/19 02:32:33;;;;;;;18.45;10.30;;;1.30;99.90;;;;;;5027267;28;20097;-70
2022/12/19 02:35:02;;;;;;;18.27;11.55;;;1.30;99.90;;;;;;5068010;28;20393;-71
2022/12/19 02:37:36;;;;;;;21.67;11.50;;;1.30;99.90;;;;;;5047318;28;20037;-70
2022/12/19 02:40:14;;;;;;;20.75;12.60;;;1.30;99.90;;;;;;5043567;28;20085;-70
2022/12/19 02:42:45;;;;;;;18.60;11.07;;;1.30;99.90;;;;;;5066655;28;20053;-70
2022/12/19 02:45:14;;;;;;;25.17;13.27;;;1.30;99.90;;;;;;5021022;28;20143;-70
2022/12/19 02:47:41;;;;;;;18.08;10.68;;;1.30;99.90;;;;;;5057850;28;20056;-71
2022/12/19 02:50:08;;;;;;;19.00;11.57;;;1.30;99.90;;;;;;5048933;28;20056;-69
2022/12/19 02:52:33;;;;;;;21.13;11.70;;;1.30;99.90;;;;;;5036424;28;20049;-69
2022/12/19 02:55:10;;;;;;;21.63;12.07;;;1.30;99.90;;;;;;5037522;28;20061;-70
2022/12/19 02:57:41;;;;;;;;;;;1.20;99.90;;;;;;5059380;28;20050;-69
2022/12/19 03:00:11;;;;;;;22.50;12.27;;;1.30;99.90;;;;;;5051598;28;19932;-70
2022/12/19 03:02:54;;;;;;;23.58;12.43;;;1.20;99.90;;;;;;5061853;28;20112;-70
2022/12/19 03:05:29;;;;;;;23.17;12.93;;;1.20;99.90;;;;;;5043622;28;20083;-70
2022/12/19 03:08:37;;;;;;;22.60;12.57;;;1.30;99.90;;;;;;5048894;28;20092;-70
2022/12/19 03:11:04;;;;;;;;;;;1.30;99.90;;;;;;4972509;28;20431;-70
2022/12/19 03:14:01;;;;;;;22.85;12.60;;;1.30;99.90;;;;;;5008085;28;19929;-69
2022/12/19 03:16:27;;;;;;;22.03;11.97;;;1.30;99.90;;;;;;5030326;28;20065;-69
2022/12/19 03:18:53;;;;;;;24.48;12.93;;;1.30;99.90;;;;;;5030079;28;20870;-70
2022/12/19 03:21:26;;;;;;;23.58;13.48;;;1.30;99.90;;;;;;5055855;28;20045;-70
2022/12/19 03:23:54;;;;;;;24.58;13.30;;;1.30;99.90;;;;;;5038326;28;20592;-70
2022/12/19 03:26:28;;;;;;;24.05;13.52;;;1.40;99.90;;;;;;5041604;28;20042;-70
2022/12/19 03:29:20;;;;;;;24.95;12.93;;;1.40;99.90;;;;;;5058167;28;20501;-70
2022/12/19 03:31:46;;;;;;;25.13;13.82;;;1.40;99.90;;;;;;5060561;28;20041;-70
2022/12/19 03:34:27;;;;;;;22.95;12.98;;;1.40;99.90;;;;;;5038785;28;20044;-70
2022/12/19 03:36:56;;;;;;;21.52;12.45;;;1.80;99.90;;;;;;5037323;28;20099;-70
2022/12/19 03:39:24;;;;;;;21.80;12.85;;;1.40;99.90;;;;;;5058300;28;20049;-70
2022/12/19 03:44:38;;;;;;;23.13;12.37;;;1.50;99.90;;;;;;5047325;28;20048;-70
2022/12/19 03:47:23;;;;;;;24.05;13.10;;;1.60;99.90;;;;;;5045399;28;20057;-70
2022/12/19 03:49:49;;;;;;;24.02;13.07;;;1.80;99.90;;;;;;5061091;28;20105;-70
2022/12/19 03:52:26;;;;;;;24.90;13.45;;;2.50;99.90;;;;;;5037567;28;20064;-70
2022/12/19 03:55:20;;;;;;;24.02;12.02;;;1.70;99.90;;;;;;5038246;28;20052;-70
2022/12/19 03:58:01;;;;;;;25.67;14.40;;;1.70;99.90;;;;;;5053492;28;20053;-70
2022/12/19 04:00:28;;;;;;;23.67;12.80;;;1.70;99.90;;;;;;5055284;28;20044;-70
2022/12/19 04:02:57;;;;;;;20.90;12.20;;;1.70;99.90;;;;;;5037207;28;20049;-70
2022/12/19 04:05:25;;;;;;;24.77;12.57;;;1.90;99.90;;;;;;5035565;28;20088;-70
2022/12/19 04:07:54;;;;;;;28.05;13.25;;;1.80;99.90;;;;;;5037201;28;20055;-70
2022/12/19 04:10:23;;;;;;;22.63;12.93;;;1.90;99.90;;;;;;5052810;28;20041;-70
2022/12/19 04:13:12;;;;;;;23.95;13.18;;;1.90;99.90;;;;;;5038263;28;20056;-70
2022/12/19 04:15:52;;;;;;;20.40;11.55;;;2.00;99.90;;;;;;5042251;28;20108;-70
2022/12/19 04:18:19;;;;;;;23.95;14.15;;;1.90;99.90;;;;;;5068469;28;20049;-71
2022/12/19 04:20:53;;;;;;;23.00;12.80;;;3.10;99.90;;;;;;5044146;28;20044;-70
2022/12/19 04:23:30;;;;;;;24.70;12.40;;;2.00;99.90;;;;;;5037934;28;20073;-71
2022/12/19 04:25:58;;;;;;;;;;;2.10;99.90;;;;;;5045787;28;20106;-70
2022/12/19 04:28:46;;;;;;;23.10;13.43;;;2.10;99.90;;;;;;5047429;28;19931;-70
2022/12/19 04:31:14;;;;;;;22.95;13.05;;;2.00;99.90;;;;;;5033230;28;20582;-70
2022/12/19 04:33:39;;;;;;;23.02;13.73;;;2.20;99.90;;;;;;5038178;28;20045;-71
2022/12/19 04:36:05;;;;;;;22.80;13.55;;;2.10;99.90;;;;;;5034024;28;20049;-71
2022/12/19 04:38:31;;;;;;;25.20;12.90;;;2.10;99.90;;;;;;5038017;28;20049;-70
2022/12/19 04:40:57;;;;;;;22.83;13.95;;;2.10;99.90;;;;;;5035295;28;20053;-70
2022/12/19 04:43:22;;;;;;;23.80;14.50;;;2.20;99.90;;;;;;5048749;28;20045;-71
2022/12/19 04:45:48;;;;;;;24.67;13.85;;;2.40;99.90;;;;;;5046673;28;20220;-70
2022/12/19 04:48:14;;;;;;;26.42;13.75;;;2.20;99.90;;;;;;5036608;28;20075;-71
2022/12/19 04:50:39;;;;;;;25.17;14.57;;;2.20;99.90;;;;;;5036357;28;20041;-70
2022/12/19 04:53:05;;;;;;;23.60;13.45;;;2.20;99.90;;;;;;5038490;28;20045;-71
2022/12/19 04:55:31;;;;;;;25.35;15.25;;;2.30;99.90;;;;;;5057429;28;20041;-71
2022/12/19 04:57:57;;;;;;;24.88;13.18;;;2.30;99.90;;;;;;5034319;28;20056;-70
2022/12/19 05:00:23;;;;;;;25.60;15.02;;;2.30;99.90;;;;;;5044813;28;20053;-70
2022/12/19 05:02:49;;;;;;;24.42;15.48;;;2.40;99.90;;;;;;5042879;28;20037;-70
2022/12/19 05:05:15;;;;;;;26.60;12.80;;;2.40;99.90;;;;;;5039629;28;20113;-70
2022/12/19 05:07:41;;;;;;;26.70;13.93;;;2.50;99.90;;;;;;5042817;28;20052;-70
2022/12/19 05:10:07;;;;;;;22.52;12.23;;;2.50;99.90;;;;;;5038772;28;20140;-70
2022/12/19 05:12:32;;;;;;;23.50;12.68;;;2.50;99.90;;;;;;5043555;28;20101;-70
2022/12/19 05:14:58;;;;;;;25.48;13.68;;;2.50;99.90;;;;;;5046203;28;20037;-70
2022/12/19 05:17:24;;;;;;;19.58;11.48;;;2.50;99.90;;;;;;5042775;28;20053;-70
2022/12/19 05:19:49;;;;;;;22.27;12.18;;;2.60;99.90;;;;;;5049028;28;20469;-70
2022/12/19 05:22:15;;;;;;;21.52;12.75;;;2.60;99.90;;;;;;5050131;28;20033;-71
2022/12/19 05:24:41;;;;;;;21.67;12.65;;;2.70;99.90;;;;;;5054146;28;20045;-71
2022/12/19 05:27:06;;;;;;;22.90;12.45;;;3.00;99.90;;;;;;5049672;28;20046;-70
2022/12/19 05:29:33;;;;;;;19.77;12.07;;;2.80;99.90;;;;;;5044209;28;20531;-70
2022/12/19 05:31:59;;;;;;;21.67;11.73;;;2.80;99.90;;;;;;5055572;28;20049;-70
2022/12/19 05:34:24;;;;;;;22.60;13.88;;;2.80;99.90;;;;;;5038921;28;20080;-70
2022/12/19 05:36:50;;;;;;;24.83;13.48;;;2.90;99.90;;;;;;5049144;28;20052;-70
2022/12/19 05:39:16;;;;;;;25.38;13.68;;;3.40;99.90;;;;;;5058603;28;20077;-70
2022/12/19 05:41:42;;;;;;;24.40;12.75;;;2.90;99.90;;;;;;5043608;28;21378;-70
2022/12/19 05:44:16;;;;;;;23.13;13.23;;;2.90;99.90;;;;;;5044767;28;20076;-70
2022/12/19 05:46:41;;;;;;;24.63;12.52;;;2.90;99.90;;;;;;5050621;28;20596;-70
2022/12/19 05:49:07;;;;;;;24.88;13.63;;;3.00;99.90;;;;;;5038038;28;20057;-70
2022/12/19 05:51:33;;;;;;;20.85;11.73;;;3.00;99.90;;;;;;5065253;28;20133;-70
2022/12/19 05:54:02;;;;;;;23.65;14.18;;;3.10;99.90;;;;;;5038668;28;20050;-69
2022/12/19 05:56:27;;;;;;;23.25;14.15;;;3.20;99.90;;;;;;5050516;28;20042;-70
2022/12/19 05:58:53;;;;;;;23.90;13.48;;;3.20;99.90;;;;;;5076276;28;20133;-69
2022/12/19 06:01:21;;;;;;;21.25;13.00;;;3.30;99.90;;;;;;5068539;28;20413;-69
2022/12/19 06:03:48;;;;;;;23.90;14.05;;;3.40;99.90;;;;;;5060981;28;20033;-69
2022/12/19 06:06:19;;;;;;;22.33;12.98;;;3.50;99.90;;;;;;5036815;28;20071;-69
2022/12/19 06:08:45;;;;;;;24.33;13.02;;;3.50;99.90;;;;;;5048385;28;20066;-68
2022/12/19 06:11:13;;;;;;;23.20;13.82;;;3.60;99.90;;;;;;5040994;28;20050;-70
2022/12/19 06:13:39;;;;;;;21.35;12.75;;;3.60;99.90;;;;;;5041493;28;20126;-70
2022/12/19 06:16:13;;;;;;;27.13;13.48;;;3.70;99.90;;;;;;5038224;28;20059;-70
2022/12/19 06:18:40;;;;;;;20.33;12.40;;;3.60;99.90;;;;;;5045824;28;20302;-70
2022/12/19 06:21:09;;;;;;;19.42;12.20;;;3.60;99.90;;;;;;5045393;28;20038;-69
2022/12/19 06:23:36;;;;;;;17.88;11.52;;;3.60;99.90;;;;;;5037415;28;20482;-70
2022/12/19 06:26:04;;;;;;;22.38;13.10;;;3.60;99.90;;;;;;5039311;28;20049;-70
2022/12/19 06:28:31;;;;;;;17.63;10.77;;;3.70;99.90;;;;;;5069296;28;20124;-69
2022/12/19 06:30:58;;;;;;;15.88;9.25;;;3.80;99.90;;;;;;5047228;28;20045;-70
2022/12/19 06:33:24;;;;;;;21.40;12.18;;;3.90;99.90;;;;;;5047640;28;20057;-69
2022/12/19 06:36:07;;;;;;;19.60;13.10;;;3.90;99.90;;;;;;5036058;28;20052;-69
2022/12/19 06:38:33;;;;;;;20.63;10.80;;;4.00;99.90;;;;;;5052792;28;20057;-70
2022/12/19 06:43:44;;;;;;;18.27;10.23;;;4.10;99.90;;;;;;5022409;28;20104;-69
2022/12/19 06:46:10;;;;;;;14.60;9.07;;;4.10;99.90;;;;;;5065070;28;20407;-69
2022/12/19 06:48:36;;;;;;;16.75;10.60;;;4.20;99.90;;;;;;5033150;28;20460;-68
2022/12/19 06:51:01;;;;;;;16.17;9.55;;;4.20;99.90;;;;;;5055539;28;20049;-70
2022/12/19 06:53:27;;;;;;;17.63;10.55;;;4.30;99.90;;;;;;5037209;28;20053;-69
2022/12/19 06:55:56;;;;;;;16.00;9.48;;;4.30;99.90;;;;;;5041167;28;20043;-69
2022/12/19 06:58:22;;;;;;;17.80;10.63;;;4.40;99.90;;;;;;5040408;28;20044;-69
2022/12/19 07:00:48;;;;;;;16.15;9.98;;;4.30;99.90;;;;;;5048896;28;20049;-70
2022/12/19 07:03:18;;;;;;;18.08;9.80;;;4.50;99.90;;;;;;5053945;28;20473;-69
2022/12/19 07:05:44;;;;;;;15.80;10.45;;;4.40;99.90;;;;;;5036898;28;20037;-70
2022/12/19 07:08:09;;;;;;;16.17;10.18;;;4.40;99.90;;;;;;5046594;28;20128;-69
2022/12/19 07:10:35;;;;;;;17.50;11.65;;;4.50;99.90;;;;;;5036984;28;20078;-69
2022/12/19 07:13:01;;;;;;;17.95;11.00;;;4.50;99.90;;;;;;5039212;28;20049;-69
2022/12/19 07:15:28;;;;;;;16.27;11.05;;;4.50;99.90;;;;;;5045142;28;20040;-71
2022/12/19 07:17:55;;;;;;;21.20;13.63;;;4.50;99.90;;;;;;5048655;28;20103;-71
2022/12/19 07:20:21;;;;;;;16.15;10.50;;;4.60;99.90;;;;;;5051107;28;20063;-74
2022/12/19 07:22:47;;;;;;;15.57;9.20;;;4.50;99.90;;;;;;5035761;28;20076;-69
2022/12/19 07:25:13;;;;;;;17.27;9.75;;;4.60;99.90;;;;;;5038863;28;20041;-69
2022/12/19 07:27:39;;;;;;;17.77;12.23;;;4.50;99.90;;;;;;5036173;28;20040;-70
2022/12/19 07:30:06;;;;;;;15.70;10.23;;;4.60;99.90;;;;;;5043695;28;20041;-70
2022/12/19 07:32:32;;;;;;;17.00;10.88;;;4.50;99.90;;;;;;5055070;28;20607;-69
2022/12/19 07:34:58;;;;;;;16.52;11.10;;;4.50;99.90;;;;;;5057886;28;20080;-72
2022/12/19 07:37:24;;;;;;;15.07;9.93;;;4.50;99.90;;;;;;5039926;28;20507;-69
2022/12/19 07:39:51;;;;;;;15.48;9.70;;;4.60;99.90;;;;;;5036164;28;20041;-70
2022/12/19 07:42:18;;;;;;;16.13;10.57;;;4.60;99.90;;;;;;5038475;28;20100;-70
2022/12/19 07:44:43;;;;;;;15.68;9.18;;;4.70;99.90;;;;;;5035670;28;20072;-69
2022/12/19 07:47:09;;;;;;;15.95;10.55;;;4.70;99.90;;;;;;5038408;28;20041;-70
2022/12/19 07:49:35;;;;;;;17.38;9.98;;;4.70;99.90;;;;;;5036281;28;20064;-69
2022/12/19 07:52:00;;;;;;;15.48;10.05;;;4.80;99.90;;;;;;5065152;28;20046;-71
2022/12/19 07:54:26;;;;;;;15.23;9.32;;;4.70;99.90;;;;;;5028471;28;20144;-68
2022/12/19 07:56:52;;;;;;;12.13;7.75;;;4.80;99.90;;;;;;5052397;28;20045;-69
2022/12/19 07:59:17;;;;;;;13.20;7.72;;;4.80;99.90;;;;;;5044151;28;20101;-69
2022/12/19 08:01:43;;;;;;;16.42;9.63;;;4.70;99.90;;;;;;5053247;28;20409;-69
2022/12/19 08:04:09;;;;;;;14.38;8.82;;;4.80;99.90;;;;;;5037944;28;20041;-70
2022/12/19 08:06:35;;;;;;;13.20;7.68;;;4.80;99.90;;;;;;5033237;28;20041;-69
2022/12/19 08:09:00;;;;;;;17.02;11.05;;;4.90;99.90;;;;;;5016934;28;20310;-69
2022/12/19 08:11:28;;;;;;;14.93;9.68;;;4.90;99.90;;;;;;5041779;28;20620;-68
2022/12/19 08:13:54;;;;;;;14.52;9.82;;;4.90;99.90;;;;;;5024932;28;20068;-69
2022/12/19 08:16:21;;;;;;;13.68;8.95;;;4.90;99.90;;;;;;5026775;28;20155;-67
2022/12/19 08:18:47;;;;;;;15.60;10.18;;;5.00;99.90;;;;;;5026093;28;20524;-69
2022/12/19 08:21:13;;;;;;;14.10;8.77;;;5.00;99.90;;;;;;5028863;28;20378;-69
2022/12/19 08:23:39;;;;;;;12.02;9.07;;;5.00;99.90;;;;;;5041432;28;20057;-69
2022/12/19 08:26:09;;;;;;;15.25;9.50;;;5.20;99.90;;;;;;5031094;28;20068;-69
2022/12/19 08:28:35;;;;;;;16.25;9.88;;;5.10;99.90;;;;;;5024689;28;20053;-67
2022/12/19 08:31:20;;;;;;;14.27;9.20;;;5.20;99.90;;;;;;5016512;28;20121;-68
2022/12/19 08:33:46;;;;;;;13.73;9.23;;;5.20;99.90;;;;;;5017909;28;20045;-69
2022/12/19 08:36:14;;;;;;;15.13;9.73;;;5.20;99.90;;;;;;5022667;28;20129;-68
2022/12/19 08:38:40;;;;;;;15.23;8.63;;;5.20;99.90;;;;;;5017703;28;20038;-69
2022/12/19 08:41:06;;;;;;;17.70;10.30;;;5.30;99.90;;;;;;5028610;28;20038;-68
2022/12/19 08:43:32;;;;;;;14.68;9.88;;;5.40;99.90;;;;;;5051683;28;20140;-69
2022/12/19 08:45:58;;;;;;;11.68;8.05;;;5.30;99.90;;;;;;5026049;28;20150;-68
2022/12/19 08:48:24;;;;;;;13.23;9.25;;;5.30;99.90;;;;;;5064895;28;20045;-68
2022/12/19 08:50:51;;;;;;;14.10;9.43;;;5.40;99.90;;;;;;5017940;28;20453;-69
2022/12/19 08:53:16;;;;;;;11.15;7.88;;;5.40;99.90;;;;;;5064953;28;20042;-68
2022/12/19 08:55:42;;;;;;;13.30;8.27;;;5.50;99.90;;;;;;5022205;28;20065;-70
2022/12/19 08:58:08;;;;;;;12.18;8.65;;;5.50;99.90;;;;;;5055116;28;20107;-69
2022/12/19 09:00:33;;;;;;;15.85;9.82;;;5.50;99.90;;;;;;5040493;28;20037;-69
2022/12/19 09:02:59;;;;;;;14.60;10.27;;;5.50;99.90;;;;;;5050702;28;20033;-68
2022/12/19 09:05:25;;;;;;;14.25;10.27;;;5.60;99.90;;;;;;5050820;28;20045;-68
2022/12/19 09:07:50;;;;;;;16.02;10.57;;;5.60;99.90;;;;;;5069739;28;20126;-67
2022/12/19 09:10:16;;;;;;;15.15;9.30;;;5.60;99.90;;;;;;5029969;28;20033;-69
2022/12/19 09:12:41;;;;;;;15.55;11.52;;;5.70;99.90;;;;;;5029922;28;20109;-70
2022/12/19 09:15:07;;;;;;;17.27;10.75;;;5.70;99.90;;;;;;5037904;28;20037;-69
2022/12/19 09:17:33;;;;;;;15.40;10.18;;;5.70;99.90;;;;;;5023124;28;20063;-68
2022/12/19 09:19:59;;;;;;;14.98;9.55;;;5.70;99.90;;;;;;5071363;28;20136;-69
2022/12/19 09:22:24;;;;;;;17.73;11.45;;;5.80;99.90;;;;;;5040491;28;20053;-69
2022/12/19 09:24:50;;;;;;;20.08;11.70;;;5.80;99.90;;;;;;5031704;28;20045;-69
2022/12/19 09:27:16;;;;;;;15.25;11.43;;;5.90;99.90;;;;;;5023863;28;20429;-68
2022/12/19 09:29:42;;;;;;;16.63;10.50;;;5.90;99.90;;;;;;5028298;28;20461;-66
2022/12/19 09:32:08;;;;;;;18.27;11.93;;;6.00;99.90;;;;;;5031601;28;20071;-68
2022/12/19 09:34:35;;;;;;;17.65;11.63;;;6.00;99.90;;;;;;5043435;28;20092;-67
2022/12/19 09:37:01;;;;;;;16.40;11.15;;;6.00;99.90;;;;;;5033485;28;20049;-67
2022/12/19 09:39:26;;;;;;;18.58;11.93;;;6.10;99.90;;;;;;5023635;28;20037;-67
2022/12/19 09:42:04;;;;;;;15.15;11.27;;;6.10;99.90;;;;;;5023912;28;20373;-68
2022/12/19 09:44:58;;;;;;;16.92;11.52;;;6.20;99.90;;;;;;5017689;28;20125;-66
2022/12/19 09:47:30;;;;;;;18.75;11.50;;;6.20;99.90;;;;;;5033241;28;20064;-68
2022/12/19 09:49:57;;;;;;;12.40;9.10;;;6.20;99.90;;;;;;5031444;28;20054;-68
2022/12/19 09:52:34;;;;;;;16.60;10.18;;;6.30;99.90;;;;;;5019185;28;20050;-69
2022/12/19 09:55:09;;;;;;;14.25;9.52;;;6.30;99.90;;;;;;5021909;28;20049;-69
2022/12/19 09:57:56;;;;;;;14.77;9.90;;;6.30;99.90;;;;;;5039574;28;20049;-70
2022/12/19 10:00:22;;;;;;;16.02;11.30;;;6.30;99.90;;;;;;5027397;28;20101;-69
2022/12/19 10:03:00;;;;;;;15.20;10.50;;;6.30;99.90;;;;;;5023632;28;20186;-69
2022/12/19 10:05:46;;;;;;;14.15;9.23;;;6.30;99.90;;;;;;5023917;28;20057;-70
2022/12/19 10:08:20;;;;;;;13.68;9.35;;;6.30;99.90;;;;;;5027944;28;20046;-68
2022/12/19 10:10:51;;;;;;;12.57;8.57;;;6.30;99.90;;;;;;5031545;28;20049;-69
2022/12/19 10:13:42;;;;;;;15.50;9.70;;;6.40;99.90;;;;;;5031586;28;20037;-70
2022/12/19 10:16:12;;;;;;;14.75;9.52;;;6.40;99.90;;;;;;5024560;28;20052;-70
2022/12/19 10:19:12;;;;;;;12.45;9.52;;;6.40;99.90;;;;;;5023163;28;20049;-69
2022/12/19 10:21:48;;;;;;;15.15;9.07;;;6.40;99.90;;;;;;5014452;28;20063;-69
2022/12/19 10:24:40;;;;;;;15.18;9.32;;;6.50;99.90;;;;;;5053647;28;20033;-69
2022/12/19 10:27:29;;;;;;;12.93;9.32;;;6.50;99.90;;;;;;5017117;28;20500;-68
2022/12/19 10:30:07;;;;;;;10.57;8.02;;;6.50;99.90;;;;;;5021416;28;20053;-68
2022/12/19 10:32:39;;;;;;;13.00;8.90;;;6.50;99.90;;;;;;5029199;28;20042;-68
2022/12/19 10:35:15;;;;;;;13.18;8.30;;;6.60;99.90;;;;;;5018237;28;21035;-69
2022/12/19 10:38:09;;;;;;;12.73;8.77;;;6.60;99.90;;;;;;5018276;28;20060;-70
2022/12/19 10:40:44;;;;;;;11.18;8.43;;;6.60;99.90;;;;;;5026545;28;20121;-71
2022/12/19 10:43:24;;;;;;;11.38;7.45;;;6.70;99.90;;;;;;5036693;28;20065;-70
2022/12/19 10:45:56;;;;;;;12.30;8.07;;;6.70;99.90;;;;;;5036679;28;20053;-69
2022/12/19 10:48:22;;;;;;;10.07;7.35;;;6.80;99.90;;;;;;5066133;28;20118;-70
2022/12/19 10:50:48;;;;;;;11.00;7.35;;;6.80;99.90;;;;;;5026576;28;20044;-69
2022/12/19 10:53:15;;;;;;;12.60;7.93;;;6.80;99.90;;;;;;5046124;28;20046;-68
2022/12/19 10:55:49;;;;;;;11.02;8.80;;;6.70;99.90;;;;;;5025384;28;20057;-71
2022/12/19 10:58:36;;;;;;;11.00;7.60;;;6.90;99.90;;;;;;5024380;28;20053;-69
2022/12/19 11:01:12;;;;;;;;;;;6.80;99.90;;;;;;5068671;28;20104;-71
2022/12/19 11:03:41;;;;;;;8.90;7.30;;;6.80;99.90;;;;;;5033216;28;19921;-70
2022/12/19 11:06:45;;;;;;;14.27;9.45;;;6.90;99.90;;;;;;5051029;28;20038;-73
2022/12/19 11:09:21;;;;;;;11.63;8.38;;;6.90;99.90;;;;;;5023230;28;20048;-70
2022/12/19 11:11:54;;;;;;;12.30;7.95;;;6.90;99.90;;;;;;5023893;28;20105;-71
2022/12/19 11:14:27;;;;;;;10.02;6.78;;;6.90;99.90;;;;;;5023918;28;20048;-70
2022/12/19 11:16:52;;;;;;;11.05;8.02;;;7.00;99.90;;;;;;5017489;28;20042;-71
2022/12/19 11:19:36;;;;;;;12.57;7.72;;;6.90;99.90;;;;;;5029074;28;20050;-70
2022/12/19 11:22:06;;;;;;;11.15;7.93;;;7.00;99.90;;;;;;5018628;28;20052;-70
2022/12/19 11:24:39;;;;;;;11.20;8.27;;;7.00;99.90;;;;;;5024029;28;20038;-71
2022/12/19 11:27:29;;;;;;;10.98;7.78;;;7.00;99.90;;;;;;5016698;28;20041;-70
2022/12/19 11:29:57;;;;;;;11.95;8.00;;;7.00;99.90;;;;;;5034737;28;20099;-71
2022/12/19 11:32:32;;;;;;;10.18;7.30;;;7.20;99.90;;;;;;5037373;28;20056;-70
2022/12/19 11:35:03;;;;;;;9.60;6.65;;;7.10;99.90;;;;;;5016986;28;20049;-71
2022/12/19 11:37:48;;;;;;;10.95;7.90;;;7.10;99.90;;;;;;5021091;28;20460;-70
2022/12/19 11:40:58;;;;;;;11.65;8.05;;;7.10;99.90;;;;;;5030015;28;20053;-71
2022/12/19 11:43:40;;;;;;;10.57;7.70;;;7.10;99.90;;;;;;4942197;29;20067;-69
2022/12/19 11:46:31;;;;;;;10.70;7.50;;;7.10;99.90;;;;;;4948533;28;20102;-69
2022/12/19 11:49:23;;;;;;;10.43;7.15;;;7.10;99.90;;;;;;5021014;28;20457;-69
2022/12/19 11:52:13;;;;;;;10.35;6.53;;;7.10;99.90;;;;;;5042130;28;20049;-70
2022/12/19 11:55:04;;;;;;;9.57;6.93;;;7.10;99.90;;;;;;5037749;28;20525;-69
2022/12/19 11:57:30;;;;;;;8.93;6.20;;;7.20;99.90;;;;;;5035502;28;20073;-70
2022/12/19 11:59:56;;;;;;;11.13;7.82;;;7.10;99.90;;;;;;5037770;28;20049;-71
2022/12/19 12:02:39;;;;;;;10.63;7.88;;;7.10;99.90;;;;;;5036358;28;20096;-70
2022/12/19 12:05:23;;;;;;;11.30;8.00;;;7.20;99.90;;;;;;5053983;28;20128;-69
2022/12/19 12:08:22;;;;;;;12.23;6.93;;;7.10;99.90;;;;;;5057448;28;20053;-70
2022/12/19 12:10:58;;;;;;;8.85;6.72;;;7.20;99.90;;;;;;4999274;28;20062;-70
2022/12/19 12:13:30;;;;;;;12.90;8.00;;;7.20;99.90;;;;;;5020069;28;20124;-72
2022/12/19 12:16:12;;;;;;;10.02;6.97;;;7.30;99.90;;;;;;5040404;28;20080;-69
2022/12/19 12:18:58;;;;;;;9.68;6.60;;;7.30;99.90;;;;;;5035591;28;20116;-69
2022/12/19 12:22:02;;;;;;;9.43;6.70;;;7.30;99.90;;;;;;5049583;28;20067;-70
2022/12/19 12:24:31;;;;;;;9.90;6.22;;;7.30;99.90;;;;;;5026391;28;20057;-69
2022/12/19 12:27:04;;;;;;;8.88;6.85;;;7.40;99.90;;;;;;5033057;28;20041;-70
2022/12/19 12:29:57;;;;;;;10.25;7.15;;;7.40;99.90;;;;;;5061570;28;20050;-70
2022/12/19 12:32:38;;;;;;;8.45;6.28;;;7.50;99.90;;;;;;5034833;28;20120;-69
2022/12/19 12:35:40;;;;;;;7.85;5.88;;;7.50;99.90;;;;;;5036947;28;20076;-70
2022/12/19 12:38:30;;;;;;;8.07;6.53;;;7.60;99.90;;;;;;5036562;28;20080;-72
2022/12/19 12:42:02;;;;;;;10.25;6.00;;;7.60;99.90;;;;;;5035931;28;20041;-70
2022/12/19 12:44:10;;;;;;;8.05;6.18;;;7.60;99.90;;;;;;5045174;28;20076;-70
2022/12/19 12:46:44;;;;;;;9.32;7.00;;;7.60;99.90;;;;;;5053967;28;20084;-70
2022/12/19 12:49:36;;;;;;;8.43;6.80;;;7.60;99.90;;;;;;5055781;28;20049;-70
2022/12/19 12:52:06;;;;;;;8.60;6.28;;;7.60;99.90;;;;;;5038989;28;20144;-70
2022/12/19 12:54:36;;;;;;;7.88;5.78;;;7.60;99.90;;;;;;5037199;28;20049;-70
2022/12/19 12:57:02;;;;;;;8.52;5.35;;;7.70;99.90;;;;;;5035619;28;20586;-69
2022/12/19 12:59:29;;;;;;;8.48;5.85;;;7.70;99.90;;;;;;5040418;28;20061;-69
2022/12/19 13:02:06;;;;;;;7.78;5.93;;;7.70;99.90;;;;;;5053688;28;20041;-69
2022/12/19 13:04:41;;;;;;;8.60;6.80;;;7.70;99.90;;;;;;5057392;28;20094;-70
2022/12/19 13:07:38;;;;;;;8.13;5.57;;;7.70;99.90;;;;;;5055165;28;20169;-70
2022/12/19 13:10:06;;;;;;;;;;;7.70;99.90;;;;;;5039948;28;20045;-70
2022/12/19 13:15:44;;;;;;;9.10;6.05;;;7.70;99.90;;;;;;4958377;28;20105;-69